sensor_id;sensor_type;location;lat;lon;timestamp;temperature;humidity
16408;DHT22;8313;49.894;8.084;2022-09-09T00:00:23;18.60;99.90
16408;DHT22;8313;49.894;8.084;2022-09-09T00:05:34;18.60;99.90
16408;DHT22;8313;49.894;8.084;2022-09-09T00:08:02;18.60;99.90
16408;DHT22;8313;49.894;8.084;2022-09-09T00:10:39;18.60;99.90
16408;DHT22;8313;49.894;8.084;2022-09-09T00:13:20;18.50;99.90
16408;DHT22;8313;49.894;8.084;2022-09-09T00:16:00;18.40;99.90
16408;DHT22;8313;49.894;8.084;2022-09-09T00:21:05;18.30;99.90
16408;DHT22;8313;49.894;8.084;2022-09-09T00:23:38;18.30;99.90
16408;DHT22;8313;49.894;8.084;2022-09-09T00:28:39;18.40;99.90
16408;DHT22;8313;49.894;8.084;2022-09-09T00:31:12;18.30;99.90
16408;DHT22;8313;49.894;8.084;2022-09-09T00:33:38;18.30;99.90
16408;DHT22;8313;49.894;8.084;2022-09-09T00:36:13;18.30;99.90
16408;DHT22;8313;49.894;8.084;2022-09-09T00:38:47;18.30;99.90
16408;DHT22;8313;49.894;8.084;2022-09-09T00:44:32;18.20;99.90
16408;DHT22;8313;49.894;8.084;2022-09-09T00:47:20;18.20;99.90
16408;DHT22;8313;49.894;8.084;2022-09-09T00:50:00;18.20;99.90
16408;DHT22;8313;49.894;8.084;2022-09-09T00:55:36;18.20;99.90
16408;DHT22;8313;49.894;8.084;2022-09-09T00:58:07;18.20;99.90
16408;DHT22;8313;49.894;8.084;2022-09-09T01:00:59;18.10;99.90
16408;DHT22;8313;49.894;8.084;2022-09-09T01:03:34;18.10;99.90
16408;DHT22;8313;49.894;8.084;2022-09-09T01:09:04;18.10;99.90
16408;DHT22;8313;49.894;8.084;2022-09-09T01:14:20;18.00;99.90
16408;DHT22;8313;49.894;8.084;2022-09-09T01:16:52;18.00;99.90
16408;DHT22;8313;49.894;8.084;2022-09-09T01:19:34;18.00;99.90
16408;DHT22;8313;49.894;8.084;2022-09-09T01:28:16;17.90;99.90
16408;DHT22;8313;49.894;8.084;2022-09-09T01:30:45;17.90;99.90
16408;DHT22;8313;49.894;8.084;2022-09-09T01:33:16;17.90;99.90
16408;DHT22;8313;49.894;8.084;2022-09-09T01:38:23;17.80;99.90
16408;DHT22;8313;49.894;8.084;2022-09-09T01:40:51;17.80;99.90
16408;DHT22;8313;49.894;8.084;2022-09-09T01:43:20;17.90;99.90
16408;DHT22;8313;49.894;8.084;2022-09-09T01:45:48;17.80;99.90
16408;DHT22;8313;49.894;8.084;2022-09-09T01:48:15;17.90;99.90
16408;DHT22;8313;49.894;8.084;2022-09-09T01:50:51;17.80;99.90
16408;DHT22;8313;49.894;8.084;2022-09-09T01:53:19;17.70;99.90
16408;DHT22;8313;49.894;8.084;2022-09-09T01:55:58;17.70;99.90
16408;DHT22;8313;49.894;8.084;2022-09-09T01:58:51;17.70;99.90
16408;DHT22;8313;49.894;8.084;2022-09-09T02:03:57;17.70;99.90
16408;DHT22;8313;49.894;8.084;2022-09-09T02:06:32;17.70;99.90
16408;DHT22;8313;49.894;8.084;2022-09-09T02:09:10;17.70;99.90
16408;DHT22;8313;49.894;8.084;2022-09-09T02:11:38;17.70;99.90
16408;DHT22;8313;49.894;8.084;2022-09-09T02:14:18;17.70;99.90
16408;DHT22;8313;49.894;8.084;2022-09-09T02:16:51;17.60;99.90
16408;DHT22;8313;49.894;8.084;2022-09-09T02:19:23;17.60;99.90
16408;DHT22;8313;49.894;8.084;2022-09-09T02:22:01;17.60;99.90
16408;DHT22;8313;49.894;8.084;2022-09-09T02:24:39;17.60;99.90
16408;DHT22;8313;49.894;8.084;2022-09-09T02:27:13;17.60;99.90
16408;DHT22;8313;49.894;8.084;2022-09-09T02:29:42;17.60;99.90
16408;DHT22;8313;49.894;8.084;2022-09-09T02:32:15;17.50;99.90
16408;DHT22;8313;49.894;8.084;2022-09-09T02:34:48;17.50;99.90
16408;DHT22;8313;49.894;8.084;2022-09-09T02:37:18;17.50;99.90
16408;DHT22;8313;49.894;8.084;2022-09-09T02:39:48;17.50;99.90
16408;DHT22;8313;49.894;8.084;2022-09-09T02:42:18;17.50;99.90
16408;DHT22;8313;49.894;8.084;2022-09-09T02:44:45;17.50;99.90
16408;DHT22;8313;49.894;8.084;2022-09-09T02:47:41;17.40;99.90
16408;DHT22;8313;49.894;8.084;2022-09-09T02:51:02;17.40;99.90
16408;DHT22;8313;49.894;8.084;2022-09-09T02:53:43;17.40;99.90
16408;DHT22;8313;49.894;8.084;2022-09-09T02:56:15;17.40;99.90
16408;DHT22;8313;49.894;8.084;2022-09-09T02:58:44;17.30;99.90
16408;DHT22;8313;49.894;8.084;2022-09-09T03:01:10;17.20;99.90
16408;DHT22;8313;49.894;8.084;2022-09-09T03:03:36;17.20;99.90
16408;DHT22;8313;49.894;8.084;2022-09-09T03:06:07;17.10;99.90
16408;DHT22;8313;49.894;8.084;2022-09-09T03:08:32;17.10;99.90
16408;DHT22;8313;49.894;8.084;2022-09-09T03:11:00;17.00;99.90
16408;DHT22;8313;49.894;8.084;2022-09-09T03:13:31;17.00;99.90
16408;DHT22;8313;49.894;8.084;2022-09-09T03:15:57;17.00;99.90
16408;DHT22;8313;49.894;8.084;2022-09-09T03:18:23;17.00;99.90
16408;DHT22;8313;49.894;8.084;2022-09-09T03:20:52;17.00;99.90
16408;DHT22;8313;49.894;8.084;2022-09-09T03:23:19;17.00;99.90
16408;DHT22;8313;49.894;8.084;2022-09-09T03:25:48;17.00;99.90
16408;DHT22;8313;49.894;8.084;2022-09-09T03:28:15;17.00;99.90
16408;DHT22;8313;49.894;8.084;2022-09-09T03:30:41;17.00;99.90
16408;DHT22;8313;49.894;8.084;2022-09-09T03:33:08;17.00;99.90
16408;DHT22;8313;49.894;8.084;2022-09-09T03:35:34;17.00;99.90
16408;DHT22;8313;49.894;8.084;2022-09-09T03:38:00;17.00;99.90
16408;DHT22;8313;49.894;8.084;2022-09-09T03:40:27;16.90;99.90
16408;DHT22;8313;49.894;8.084;2022-09-09T03:42:53;16.90;99.90
16408;DHT22;8313;49.894;8.084;2022-09-09T03:45:18;16.80;99.90
16408;DHT22;8313;49.894;8.084;2022-09-09T03:47:44;16.80;99.90
16408;DHT22;8313;49.894;8.084;2022-09-09T03:50:10;16.80;99.90
16408;DHT22;8313;49.894;8.084;2022-09-09T03:52:41;16.90;99.90
16408;DHT22;8313;49.894;8.084;2022-09-09T03:55:13;16.90;99.90
16408;DHT22;8313;49.894;8.084;2022-09-09T03:57:39;16.90;99.90
16408;DHT22;8313;49.894;8.084;2022-09-09T04:00:08;16.90;99.90
16408;DHT22;8313;49.894;8.084;2022-09-09T04:02:51;16.90;99.90
16408;DHT22;8313;49.894;8.084;2022-09-09T04:05:19;16.90;99.90
16408;DHT22;8313;49.894;8.084;2022-09-09T04:07:46;16.90;99.90
16408;DHT22;8313;49.894;8.084;2022-09-09T04:10:12;17.00;99.90
16408;DHT22;8313;49.894;8.084;2022-09-09T04:12:39;17.00;99.90
16408;DHT22;8313;49.894;8.084;2022-09-09T04:15:05;17.00;99.90
16408;DHT22;8313;49.894;8.084;2022-09-09T04:17:32;17.00;99.90
16408;DHT22;8313;49.894;8.084;2022-09-09T04:19:58;17.00;99.90
16408;DHT22;8313;49.894;8.084;2022-09-09T04:22:24;17.00;99.90
16408;DHT22;8313;49.894;8.084;2022-09-09T04:24:49;16.90;99.90
16408;DHT22;8313;49.894;8.084;2022-09-09T04:27:18;17.00;99.90
16408;DHT22;8313;49.894;8.084;2022-09-09T04:29:43;16.90;99.90
16408;DHT22;8313;49.894;8.084;2022-09-09T04:32:09;16.90;99.90
16408;DHT22;8313;49.894;8.084;2022-09-09T04:34:35;16.80;99.90
16408;DHT22;8313;49.894;8.084;2022-09-09T04:37:01;16.80;99.90
16408;DHT22;8313;49.894;8.084;2022-09-09T04:39:27;16.80;99.90
16408;DHT22;8313;49.894;8.084;2022-09-09T04:41:53;16.70;99.90
16408;DHT22;8313;49.894;8.084;2022-09-09T04:44:20;16.70;99.90
16408;DHT22;8313;49.894;8.084;2022-09-09T04:46:47;16.70;99.90
16408;DHT22;8313;49.894;8.084;2022-09-09T04:49:13;16.60;99.90
16408;DHT22;8313;49.894;8.084;2022-09-09T04:51:39;16.60;99.90
16408;DHT22;8313;49.894;8.084;2022-09-09T04:54:04;16.60;99.90
16408;DHT22;8313;49.894;8.084;2022-09-09T04:56:31;16.60;99.90
16408;DHT22;8313;49.894;8.084;2022-09-09T04:58:58;16.60;99.90
16408;DHT22;8313;49.894;8.084;2022-09-09T05:01:40;16.60;99.90
16408;DHT22;8313;49.894;8.084;2022-09-09T05:04:06;16.60;99.90
16408;DHT22;8313;49.894;8.084;2022-09-09T05:06:33;16.60;99.90
16408;DHT22;8313;49.894;8.084;2022-09-09T05:09:00;16.60;99.90
16408;DHT22;8313;49.894;8.084;2022-09-09T05:11:30;16.60;99.90
16408;DHT22;8313;49.894;8.084;2022-09-09T05:14:02;16.60;99.90
16408;DHT22;8313;49.894;8.084;2022-09-09T05:16:30;16.60;99.90
16408;DHT22;8313;49.894;8.084;2022-09-09T05:18:56;16.60;99.90
16408;DHT22;8313;49.894;8.084;2022-09-09T05:21:23;16.70;99.90
16408;DHT22;8313;49.894;8.084;2022-09-09T05:23:52;16.70;99.90
16408;DHT22;8313;49.894;8.084;2022-09-09T05:26:20;16.70;99.90
16408;DHT22;8313;49.894;8.084;2022-09-09T05:28:48;16.70;99.90
16408;DHT22;8313;49.894;8.084;2022-09-09T05:31:15;16.70;99.90
16408;DHT22;8313;49.894;8.084;2022-09-09T05:33:44;16.70;99.90
16408;DHT22;8313;49.894;8.084;2022-09-09T05:36:13;16.70;99.90
16408;DHT22;8313;49.894;8.084;2022-09-09T05:38:41;16.80;99.90
16408;DHT22;8313;49.894;8.084;2022-09-09T05:41:08;16.70;99.90
16408;DHT22;8313;49.894;8.084;2022-09-09T05:43:35;16.70;99.90
16408;DHT22;8313;49.894;8.084;2022-09-09T05:48:41;16.80;99.90
16408;DHT22;8313;49.894;8.084;2022-09-09T05:51:13;16.80;99.90
16408;DHT22;8313;49.894;8.084;2022-09-09T05:53:42;16.80;99.90
16408;DHT22;8313;49.894;8.084;2022-09-09T05:56:11;16.80;99.90
16408;DHT22;8313;49.894;8.084;2022-09-09T05:58:37;16.70;99.90
16408;DHT22;8313;49.894;8.084;2022-09-09T06:01:09;16.70;99.90
16408;DHT22;8313;49.894;8.084;2022-09-09T06:03:42;16.70;99.90
16408;DHT22;8313;49.894;8.084;2022-09-09T06:06:11;16.70;99.90
16408;DHT22;8313;49.894;8.084;2022-09-09T06:08:39;16.80;99.90
16408;DHT22;8313;49.894;8.084;2022-09-09T06:11:10;16.80;99.90
16408;DHT22;8313;49.894;8.084;2022-09-09T06:13:37;16.80;99.90
16408;DHT22;8313;49.894;8.084;2022-09-09T06:16:16;16.80;99.90
16408;DHT22;8313;49.894;8.084;2022-09-09T06:18:43;16.80;99.90
16408;DHT22;8313;49.894;8.084;2022-09-09T06:23:47;16.90;99.90
16408;DHT22;8313;49.894;8.084;2022-09-09T06:28:39;16.90;99.90
16408;DHT22;8313;49.894;8.084;2022-09-09T06:31:06;17.00;99.90
16408;DHT22;8313;49.894;8.084;2022-09-09T06:33:35;17.00;99.90
16408;DHT22;8313;49.894;8.084;2022-09-09T06:36:03;17.00;99.90
16408;DHT22;8313;49.894;8.084;2022-09-09T06:38:30;17.00;99.90
16408;DHT22;8313;49.894;8.084;2022-09-09T06:40:58;17.00;99.90
16408;DHT22;8313;49.894;8.084;2022-09-09T06:43:25;17.00;99.90
16408;DHT22;8313;49.894;8.084;2022-09-09T06:48:20;17.10;99.90
16408;DHT22;8313;49.894;8.084;2022-09-09T06:50:46;17.10;99.90
16408;DHT22;8313;49.894;8.084;2022-09-09T06:53:16;17.10;99.90
16408;DHT22;8313;49.894;8.084;2022-09-09T06:55:44;17.10;99.90
16408;DHT22;8313;49.894;8.084;2022-09-09T06:58:11;17.10;99.90
16408;DHT22;8313;49.894;8.084;2022-09-09T07:00:37;17.10;99.90
16408;DHT22;8313;49.894;8.084;2022-09-09T07:03:04;17.10;99.90
16408;DHT22;8313;49.894;8.084;2022-09-09T07:05:31;17.20;99.90
16408;DHT22;8313;49.894;8.084;2022-09-09T07:07:57;17.20;99.90
16408;DHT22;8313;49.894;8.084;2022-09-09T07:10:24;17.20;99.90
16408;DHT22;8313;49.894;8.084;2022-09-09T07:12:51;17.30;99.90
16408;DHT22;8313;49.894;8.084;2022-09-09T07:15:18;17.30;99.90
16408;DHT22;8313;49.894;8.084;2022-09-09T07:17:44;17.30;99.90
16408;DHT22;8313;49.894;8.084;2022-09-09T07:20:11;17.40;99.90
16408;DHT22;8313;49.894;8.084;2022-09-09T07:22:37;17.40;99.90
16408;DHT22;8313;49.894;8.084;2022-09-09T07:25:03;17.40;99.90
16408;DHT22;8313;49.894;8.084;2022-09-09T07:27:29;17.40;99.90
16408;DHT22;8313;49.894;8.084;2022-09-09T07:29:55;17.50;99.90
16408;DHT22;8313;49.894;8.084;2022-09-09T07:32:22;17.50;99.90
16408;DHT22;8313;49.894;8.084;2022-09-09T07:34:48;17.50;99.90
16408;DHT22;8313;49.894;8.084;2022-09-09T07:37:16;17.60;99.90
16408;DHT22;8313;49.894;8.084;2022-09-09T07:39:44;17.60;99.90
16408;DHT22;8313;49.894;8.084;2022-09-09T07:42:10;17.70;99.90
16408;DHT22;8313;49.894;8.084;2022-09-09T07:44:39;17.70;99.90
16408;DHT22;8313;49.894;8.084;2022-09-09T07:47:11;17.80;99.90
16408;DHT22;8313;49.894;8.084;2022-09-09T07:49:44;17.80;99.90
16408;DHT22;8313;49.894;8.084;2022-09-09T07:52:12;17.90;99.90
16408;DHT22;8313;49.894;8.084;2022-09-09T07:54:41;18.00;99.90
16408;DHT22;8313;49.894;8.084;2022-09-09T07:57:07;18.00;99.90
16408;DHT22;8313;49.894;8.084;2022-09-09T07:59:35;18.00;99.90
16408;DHT22;8313;49.894;8.084;2022-09-09T08:02:02;18.00;99.90
16408;DHT22;8313;49.894;8.084;2022-09-09T08:04:30;18.10;99.90
16408;DHT22;8313;49.894;8.084;2022-09-09T08:06:58;18.10;99.90
16408;DHT22;8313;49.894;8.084;2022-09-09T08:09:26;18.20;99.90
16408;DHT22;8313;49.894;8.084;2022-09-09T08:11:58;18.20;99.90
16408;DHT22;8313;49.894;8.084;2022-09-09T08:14:24;18.30;99.90
16408;DHT22;8313;49.894;8.084;2022-09-09T08:16:51;18.30;99.90
16408;DHT22;8313;49.894;8.084;2022-09-09T08:19:20;18.30;99.90
16408;DHT22;8313;49.894;8.084;2022-09-09T08:21:46;18.40;99.90
16408;DHT22;8313;49.894;8.084;2022-09-09T08:24:13;18.40;99.90
16408;DHT22;8313;49.894;8.084;2022-09-09T08:26:46;18.50;99.90
16408;DHT22;8313;49.894;8.084;2022-09-09T08:29:18;18.50;99.90
16408;DHT22;8313;49.894;8.084;2022-09-09T08:31:47;18.60;99.90
16408;DHT22;8313;49.894;8.084;2022-09-09T08:34:14;18.60;99.90
16408;DHT22;8313;49.894;8.084;2022-09-09T08:36:44;18.60;99.90
16408;DHT22;8313;49.894;8.084;2022-09-09T08:39:13;18.60;99.90
16408;DHT22;8313;49.894;8.084;2022-09-09T08:50:00;19.00;99.90
16408;DHT22;8313;49.894;8.084;2022-09-09T08:52:30;19.00;99.90
16408;DHT22;8313;49.894;8.084;2022-09-09T08:55:03;19.00;99.90
16408;DHT22;8313;49.894;8.084;2022-09-09T08:57:30;19.10;99.90
16408;DHT22;8313;49.894;8.084;2022-09-09T08:59:58;19.20;99.90
16408;DHT22;8313;49.894;8.084;2022-09-09T09:05:33;19.20;99.90
16408;DHT22;8313;49.894;8.084;2022-09-09T09:13:19;19.40;99.90
16408;DHT22;8313;49.894;8.084;2022-09-09T09:16:02;19.50;99.90
16408;DHT22;8313;49.894;8.084;2022-09-09T09:18:31;19.60;99.90
16408;DHT22;8313;49.894;8.084;2022-09-09T09:21:13;19.70;99.90
16408;DHT22;8313;49.894;8.084;2022-09-09T09:23:48;19.80;99.90
16408;DHT22;8313;49.894;8.084;2022-09-09T09:26:18;19.90;99.90
16408;DHT22;8313;49.894;8.084;2022-09-09T09:28:45;19.90;99.90
16408;DHT22;8313;49.894;8.084;2022-09-09T09:31:15;20.00;99.90
16408;DHT22;8313;49.894;8.084;2022-09-09T09:33:54;20.20;99.90
16408;DHT22;8313;49.894;8.084;2022-09-09T09:36:34;20.30;99.90
16408;DHT22;8313;49.894;8.084;2022-09-09T09:39:02;20.40;99.90
16408;DHT22;8313;49.894;8.084;2022-09-09T09:41:42;20.50;99.90
16408;DHT22;8313;49.894;8.084;2022-09-09T09:44:31;20.60;99.90
16408;DHT22;8313;49.894;8.084;2022-09-09T09:47:12;20.70;99.90
16408;DHT22;8313;49.894;8.084;2022-09-09T09:49:50;20.80;99.90
16408;DHT22;8313;49.894;8.084;2022-09-09T09:52:22;20.80;99.90
16408;DHT22;8313;49.894;8.084;2022-09-09T09:54:48;20.80;99.90
16408;DHT22;8313;49.894;8.084;2022-09-09T09:57:16;20.70;99.90
16408;DHT22;8313;49.894;8.084;2022-09-09T09:59:45;20.70;99.90
16408;DHT22;8313;49.894;8.084;2022-09-09T10:02:23;20.80;99.90
16408;DHT22;8313;49.894;8.084;2022-09-09T10:07:45;20.80;99.90
16408;DHT22;8313;49.894;8.084;2022-09-09T10:13:20;20.80;99.90
16408;DHT22;8313;49.894;8.084;2022-09-09T10:19:37;20.80;99.90
16408;DHT22;8313;49.894;8.084;2022-09-09T10:22:27;21.00;99.90
16408;DHT22;8313;49.894;8.084;2022-09-09T10:33:09;21.40;99.90
16408;DHT22;8313;49.894;8.084;2022-09-09T10:46:27;22.00;99.10
16408;DHT22;8313;49.894;8.084;2022-09-09T10:49:10;22.10;99.90
16408;DHT22;8313;49.894;8.084;2022-09-09T10:54:15;22.20;98.60
16408;DHT22;8313;49.894;8.084;2022-09-09T10:56:43;22.30;98.50
16408;DHT22;8313;49.894;8.084;2022-09-09T10:59:16;22.40;98.30
16408;DHT22;8313;49.894;8.084;2022-09-09T11:04:17;22.60;97.20
16408;DHT22;8313;49.894;8.084;2022-09-09T11:06:49;22.60;97.60
16408;DHT22;8313;49.894;8.084;2022-09-09T11:09:28;22.70;96.90
16408;DHT22;8313;49.894;8.084;2022-09-09T11:11:57;22.80;96.60
16408;DHT22;8313;49.894;8.084;2022-09-09T11:14:34;22.80;96.80
16408;DHT22;8313;49.894;8.084;2022-09-09T11:17:04;22.90;96.70
16408;DHT22;8313;49.894;8.084;2022-09-09T11:22:27;23.10;97.60
16408;DHT22;8313;49.894;8.084;2022-09-09T11:30:15;23.20;96.10
16408;DHT22;8313;49.894;8.084;2022-09-09T11:38:47;23.00;95.30
16408;DHT22;8313;49.894;8.084;2022-09-09T11:41:16;22.90;95.20
16408;DHT22;8313;49.894;8.084;2022-09-09T11:43:45;22.90;95.10
16408;DHT22;8313;49.894;8.084;2022-09-09T11:46:14;22.80;95.20
16408;DHT22;8313;49.894;8.084;2022-09-09T11:48:45;22.80;94.90
16408;DHT22;8313;49.894;8.084;2022-09-09T11:56:42;22.50;94.40
16408;DHT22;8313;49.894;8.084;2022-09-09T12:01:55;22.20;95.30
16408;DHT22;8313;49.894;8.084;2022-09-09T12:06:58;22.00;97.30
16408;DHT22;8313;49.894;8.084;2022-09-09T12:12:17;21.60;98.40
16408;DHT22;8313;49.894;8.084;2022-09-09T12:14:59;21.50;99.00
16408;DHT22;8313;49.894;8.084;2022-09-09T12:17:27;21.40;99.80
16408;DHT22;8313;49.894;8.084;2022-09-09T12:22:57;21.30;99.90
16408;DHT22;8313;49.894;8.084;2022-09-09T12:25:35;21.30;99.90
16408;DHT22;8313;49.894;8.084;2022-09-09T12:31:15;21.20;99.90
16408;DHT22;8313;49.894;8.084;2022-09-09T12:33:44;21.10;99.90
16408;DHT22;8313;49.894;8.084;2022-09-09T12:36:27;21.10;99.90
16408;DHT22;8313;49.894;8.084;2022-09-09T12:38:54;21.10;99.80
16408;DHT22;8313;49.894;8.084;2022-09-09T12:41:26;21.00;99.90
16408;DHT22;8313;49.894;8.084;2022-09-09T12:44:06;21.00;99.90
16408;DHT22;8313;49.894;8.084;2022-09-09T12:46:40;21.00;99.90
16408;DHT22;8313;49.894;8.084;2022-09-09T12:49:36;21.10;99.90
16408;DHT22;8313;49.894;8.084;2022-09-09T12:52:14;21.10;99.90
16408;DHT22;8313;49.894;8.084;2022-09-09T12:54:45;21.20;99.90
16408;DHT22;8313;49.894;8.084;2022-09-09T12:57:13;21.30;99.90
16408;DHT22;8313;49.894;8.084;2022-09-09T12:59:41;21.30;99.90
16408;DHT22;8313;49.894;8.084;2022-09-09T13:02:25;21.40;99.90
16408;DHT22;8313;49.894;8.084;2022-09-09T13:04:52;21.50;99.70
16408;DHT22;8313;49.894;8.084;2022-09-09T13:07:19;21.50;99.70
16408;DHT22;8313;49.894;8.084;2022-09-09T13:09:46;21.60;98.60
16408;DHT22;8313;49.894;8.084;2022-09-09T13:12:19;21.80;99.30
16408;DHT22;8313;49.894;8.084;2022-09-09T13:14:51;21.80;98.20
16408;DHT22;8313;49.894;8.084;2022-09-09T13:17:21;21.80;97.90
16408;DHT22;8313;49.894;8.084;2022-09-09T13:19:47;21.80;97.60
16408;DHT22;8313;49.894;8.084;2022-09-09T13:24:45;21.80;97.60
16408;DHT22;8313;49.894;8.084;2022-09-09T13:27:32;21.80;97.50
16408;DHT22;8313;49.894;8.084;2022-09-09T13:29:59;21.70;97.70
16408;DHT22;8313;49.894;8.084;2022-09-09T13:32:26;21.70;97.70
16408;DHT22;8313;49.894;8.084;2022-09-09T13:34:55;21.70;97.80
16408;DHT22;8313;49.894;8.084;2022-09-09T13:39:55;21.60;97.90
16408;DHT22;8313;49.894;8.084;2022-09-09T13:42:25;21.60;98.00
16408;DHT22;8313;49.894;8.084;2022-09-09T13:44:51;21.50;98.00
16408;DHT22;8313;49.894;8.084;2022-09-09T13:47:18;21.50;98.00
16408;DHT22;8313;49.894;8.084;2022-09-09T13:49:48;21.50;97.80
16408;DHT22;8313;49.894;8.084;2022-09-09T13:52:18;21.40;97.80
16408;DHT22;8313;49.894;8.084;2022-09-09T13:54:48;21.40;98.00
16408;DHT22;8313;49.894;8.084;2022-09-09T13:57:23;21.30;98.00
16408;DHT22;8313;49.894;8.084;2022-09-09T13:59:51;21.20;98.20
16408;DHT22;8313;49.894;8.084;2022-09-09T14:02:18;21.10;98.50
16408;DHT22;8313;49.894;8.084;2022-09-09T14:04:44;21.00;99.10
16408;DHT22;8313;49.894;8.084;2022-09-09T14:07:14;20.90;99.90
16408;DHT22;8313;49.894;8.084;2022-09-09T14:09:41;20.90;99.90
16408;DHT22;8313;49.894;8.084;2022-09-09T14:12:11;20.80;99.90
16408;DHT22;8313;49.894;8.084;2022-09-09T14:14:37;20.80;99.90
16408;DHT22;8313;49.894;8.084;2022-09-09T14:17:03;20.80;99.90
16408;DHT22;8313;49.894;8.084;2022-09-09T14:19:30;20.80;99.90
16408;DHT22;8313;49.894;8.084;2022-09-09T14:21:57;20.80;99.90
16408;DHT22;8313;49.894;8.084;2022-09-09T14:24:23;20.80;99.90
16408;DHT22;8313;49.894;8.084;2022-09-09T14:26:49;20.80;99.90
16408;DHT22;8313;49.894;8.084;2022-09-09T14:29:14;20.80;99.90
16408;DHT22;8313;49.894;8.084;2022-09-09T14:31:40;20.80;99.90
16408;DHT22;8313;49.894;8.084;2022-09-09T14:34:06;20.70;99.90
16408;DHT22;8313;49.894;8.084;2022-09-09T14:36:31;20.70;99.90
16408;DHT22;8313;49.894;8.084;2022-09-09T14:38:57;20.70;99.90
16408;DHT22;8313;49.894;8.084;2022-09-09T14:41:24;20.70;99.90
16408;DHT22;8313;49.894;8.084;2022-09-09T14:43:50;20.70;99.90
16408;DHT22;8313;49.894;8.084;2022-09-09T14:46:18;20.70;99.90
16408;DHT22;8313;49.894;8.084;2022-09-09T14:48:44;20.70;99.90
16408;DHT22;8313;49.894;8.084;2022-09-09T14:51:20;20.70;99.90
16408;DHT22;8313;49.894;8.084;2022-09-09T14:53:50;20.70;99.90
16408;DHT22;8313;49.894;8.084;2022-09-09T14:56:18;20.70;99.90
16408;DHT22;8313;49.894;8.084;2022-09-09T14:58:45;20.70;99.90
16408;DHT22;8313;49.894;8.084;2022-09-09T15:01:14;20.70;99.90
16408;DHT22;8313;49.894;8.084;2022-09-09T15:03:41;20.70;99.90
16408;DHT22;8313;49.894;8.084;2022-09-09T15:06:14;20.60;99.90
16408;DHT22;8313;49.894;8.084;2022-09-09T15:08:43;20.60;99.90
16408;DHT22;8313;49.894;8.084;2022-09-09T15:11:11;20.60;99.90
16408;DHT22;8313;49.894;8.084;2022-09-09T15:13:38;20.60;99.90
16408;DHT22;8313;49.894;8.084;2022-09-09T15:16:10;20.60;99.90
16408;DHT22;8313;49.894;8.084;2022-09-09T15:18:37;20.50;99.90
16408;DHT22;8313;49.894;8.084;2022-09-09T15:21:05;20.50;99.90
16408;DHT22;8313;49.894;8.084;2022-09-09T15:23:32;20.40;99.90
16408;DHT22;8313;49.894;8.084;2022-09-09T15:25:58;20.40;99.90
16408;DHT22;8313;49.894;8.084;2022-09-09T15:28:24;20.30;99.90
16408;DHT22;8313;49.894;8.084;2022-09-09T15:30:51;20.30;99.90
16408;DHT22;8313;49.894;8.084;2022-09-09T15:33:18;20.20;99.90
16408;DHT22;8313;49.894;8.084;2022-09-09T15:35:44;20.20;99.90
16408;DHT22;8313;49.894;8.084;2022-09-09T15:38:10;20.20;99.90
16408;DHT22;8313;49.894;8.084;2022-09-09T15:40:37;20.20;99.90
16408;DHT22;8313;49.894;8.084;2022-09-09T15:43:02;20.20;99.90
16408;DHT22;8313;49.894;8.084;2022-09-09T15:45:31;20.10;99.90
16408;DHT22;8313;49.894;8.084;2022-09-09T15:48:00;20.10;99.90
16408;DHT22;8313;49.894;8.084;2022-09-09T15:50:25;20.10;99.90
16408;DHT22;8313;49.894;8.084;2022-09-09T15:52:51;20.10;99.90
16408;DHT22;8313;49.894;8.084;2022-09-09T15:55:19;20.10;99.90
16408;DHT22;8313;49.894;8.084;2022-09-09T15:57:46;20.10;99.90
16408;DHT22;8313;49.894;8.084;2022-09-09T16:00:12;20.10;99.90
16408;DHT22;8313;49.894;8.084;2022-09-09T16:02:39;20.10;99.90
16408;DHT22;8313;49.894;8.084;2022-09-09T16:05:05;20.10;99.90
16408;DHT22;8313;49.894;8.084;2022-09-09T16:07:30;20.10;99.90
16408;DHT22;8313;49.894;8.084;2022-09-09T16:09:56;20.10;99.90
16408;DHT22;8313;49.894;8.084;2022-09-09T16:12:22;20.00;99.90
16408;DHT22;8313;49.894;8.084;2022-09-09T16:14:47;20.00;99.90
16408;DHT22;8313;49.894;8.084;2022-09-09T16:17:13;20.00;99.90
16408;DHT22;8313;49.894;8.084;2022-09-09T16:19:40;20.00;99.90
16408;DHT22;8313;49.894;8.084;2022-09-09T16:22:06;20.00;99.90
16408;DHT22;8313;49.894;8.084;2022-09-09T16:24:32;20.00;99.90
16408;DHT22;8313;49.894;8.084;2022-09-09T16:26:58;20.00;99.90
16408;DHT22;8313;49.894;8.084;2022-09-09T16:29:24;20.00;99.90
16408;DHT22;8313;49.894;8.084;2022-09-09T16:31:53;20.00;99.90
16408;DHT22;8313;49.894;8.084;2022-09-09T16:34:19;20.00;99.90
16408;DHT22;8313;49.894;8.084;2022-09-09T16:36:46;19.90;99.90
16408;DHT22;8313;49.894;8.084;2022-09-09T16:39:15;19.80;99.90
16408;DHT22;8313;49.894;8.084;2022-09-09T16:41:42;19.80;99.90
16408;DHT22;8313;49.894;8.084;2022-09-09T16:44:10;19.80;99.90
16408;DHT22;8313;49.894;8.084;2022-09-09T16:46:39;19.70;99.90
16408;DHT22;8313;49.894;8.084;2022-09-09T16:49:08;19.70;99.90
16408;DHT22;8313;49.894;8.084;2022-09-09T16:51:36;19.70;99.90
16408;DHT22;8313;49.894;8.084;2022-09-09T16:54:05;19.60;99.90
16408;DHT22;8313;49.894;8.084;2022-09-09T16:56:36;19.60;99.90
16408;DHT22;8313;49.894;8.084;2022-09-09T16:59:08;19.60;99.90
16408;DHT22;8313;49.894;8.084;2022-09-09T17:01:36;19.50;99.90
16408;DHT22;8313;49.894;8.084;2022-09-09T17:04:05;19.40;99.90
16408;DHT22;8313;49.894;8.084;2022-09-09T17:06:33;19.40;99.90
16408;DHT22;8313;49.894;8.084;2022-09-09T17:09:08;19.30;99.90
16408;DHT22;8313;49.894;8.084;2022-09-09T17:11:35;19.30;99.90
16408;DHT22;8313;49.894;8.084;2022-09-09T17:14:01;19.30;99.90
16408;DHT22;8313;49.894;8.084;2022-09-09T17:16:29;19.30;99.90
16408;DHT22;8313;49.894;8.084;2022-09-09T17:18:57;19.30;99.90
16408;DHT22;8313;49.894;8.084;2022-09-09T17:21:25;19.20;99.90
16408;DHT22;8313;49.894;8.084;2022-09-09T17:23:52;19.10;99.90
16408;DHT22;8313;49.894;8.084;2022-09-09T17:26:19;19.00;99.90
16408;DHT22;8313;49.894;8.084;2022-09-09T17:28:47;19.00;99.90
16408;DHT22;8313;49.894;8.084;2022-09-09T17:31:15;19.00;99.90
16408;DHT22;8313;49.894;8.084;2022-09-09T17:33:43;18.90;99.90
16408;DHT22;8313;49.894;8.084;2022-09-09T17:36:16;18.90;99.90
16408;DHT22;8313;49.894;8.084;2022-09-09T17:38:42;18.90;99.90
16408;DHT22;8313;49.894;8.084;2022-09-09T17:43:42;18.80;99.90
16408;DHT22;8313;49.894;8.084;2022-09-09T17:46:15;18.70;99.90
16408;DHT22;8313;49.894;8.084;2022-09-09T17:48:42;18.70;99.90
16408;DHT22;8313;49.894;8.084;2022-09-09T17:51:11;18.70;99.90
16408;DHT22;8313;49.894;8.084;2022-09-09T17:53:42;18.70;99.90
16408;DHT22;8313;49.894;8.084;2022-09-09T17:56:09;18.60;99.90
16408;DHT22;8313;49.894;8.084;2022-09-09T17:58:36;18.70;99.90
16408;DHT22;8313;49.894;8.084;2022-09-09T18:01:16;18.60;99.90
16408;DHT22;8313;49.894;8.084;2022-09-09T18:03:43;18.50;99.90
16408;DHT22;8313;49.894;8.084;2022-09-09T18:06:11;18.40;99.90
16408;DHT22;8313;49.894;8.084;2022-09-09T18:08:39;18.30;99.90
16408;DHT22;8313;49.894;8.084;2022-09-09T18:11:05;18.30;99.90
16408;DHT22;8313;49.894;8.084;2022-09-09T18:13:31;18.20;99.90